Aeroporto :
LOGIN :

Iscrizione | Disclaimer

   EN    FR    IT 

 










Sommario :    VFR   VFR Marginale   IFR   IFR Intensivo   IFR Molto Intensivo
Visibilità : 
Base nubi : 
>= 8 km
>= 3000ft
5 / 8 km
1000 / 3000 ft
1500m / 5 km
500 / 1000 ft
800 / 1500m
200 / 500 ft
< 800m
< 200 ft
Simboli :   Temporali  Nebbia  Neve Forte  Precipitazioni Forti  Vento > 20 kt
SIGMETs :   Varie  Temporali  Ghiacco  Turbolenza  Onda orograficha  Ceneri Vulcaniche






- Altitudine del aeroporto : 622 ft
- Codice IATA : BRS


EGGD - Bristol Int.

ULTIMO METAR :
  • 220450Z AUTO 24003KT 5000 BR NCD 14/14 Q1012

METARs OBSOLETI :
  • 220420Z AUTO 24004KT 3000 BR FEW003 14/14 Q1012
  • 220350Z AUTO 23005KT 5000 BR FEW003 14/14 Q1012
  • 220320Z AUTO 27006KT 9999 NCD 13/12 Q1013
  • 220250Z AUTO 25004KT 9999 NCD 15/12 Q1013
  • 220220Z AUTO 24003KT 9999 NCD 15/12 Q1013

TAF AMD TAF EGGD
Valido dal 22 a 03 ore il 23 a 00 ore UTC


220327Z 2203/2224 20005KT 9999 FEW045
BECMG 2203/2206 7000
PROB40 2203/2208 4000 BR BKN004
BECMG 2208/2211 20015KT 9999
BECMG 2215/2218 20005KT
PROB30
TEMPO 2215/2224 8000 -SHRA BKN008
ATIS : +44 1275 473 666



MetMap, La meteo Aeronautica in un colpo d'occhio ! - Copyright ORBIFLY Dicembre 2007 - Disclaimer

ORBIFLY MET'MAP TEAM :

Programmazione e sviluppo : Alexandra Zaïnal
Concezione : Baudouin d'Aumeries
Aiuto per la programmazione : Marc-Olivier Méhu
Supporto tecnico e logistico : Manuel Goepfert
Aiuto per la traduzione : Arnaldo La Scala

Contatto : metmap@orbifly.com




FONTI E CREDITI :

   NOAA